createdAt,value
2023-12-29T00:08:18.533Z,1.38
2023-12-29T00:16:42.970Z,1.41
2023-12-29T00:25:10.268Z,1.42
2023-12-29T00:33:34.996Z,1.46
2023-12-29T00:42:00.073Z,1.56
2023-12-29T00:50:25.518Z,1.61
2023-12-29T00:58:49.351Z,1.67
2023-12-29T01:07:12.870Z,1.68
2023-12-29T01:15:39.352Z,1.63
2023-12-29T01:24:05.275Z,1.64
2023-12-29T01:32:29.844Z,1.66
2023-12-29T01:40:53.853Z,1.60
2023-12-29T01:49:21.535Z,1.57
2023-12-29T01:57:46.827Z,1.52
2023-12-29T02:06:14.106Z,1.38
2023-12-29T02:14:38.716Z,1.28
2023-12-29T02:23:04.507Z,1.20
2023-12-29T02:31:32.088Z,1.04
2023-12-29T02:40:00.309Z,0.98
2023-12-29T02:48:26.670Z,1.02
2023-12-29T02:56:50.703Z,1.07
2023-12-29T03:05:15.504Z,1.09
2023-12-29T03:13:40.173Z,1.17
2023-12-29T03:22:07.144Z,1.26
2023-12-29T03:30:31.424Z,1.27
2023-12-29T03:38:58.341Z,1.17
2023-12-29T03:47:22.254Z,1.09
2023-12-29T03:55:47.093Z,0.98
2023-12-29T04:04:12.141Z,0.83
2023-12-29T04:12:38.332Z,0.73
2023-12-29T04:21:03.575Z,0.66
2023-12-29T04:29:28.780Z,0.57
2023-12-29T04:37:55.253Z,0.57
2023-12-29T04:46:22.693Z,0.61
2023-12-29T04:54:49.626Z,0.59
2023-12-29T05:03:14.269Z,0.58
2023-12-29T05:11:38.608Z,0.55
2023-12-29T05:20:02.487Z,0.50
2023-12-29T05:28:28.400Z,0.55
2023-12-29T05:36:54.426Z,0.68
2023-12-29T05:45:19.086Z,0.84
2023-12-29T05:53:43.863Z,0.99
2023-12-29T06:02:11.380Z,1.08
2023-12-29T06:10:37.538Z,1.17
2023-12-29T06:19:01.458Z,1.23
2023-12-29T06:27:25.893Z,1.31
2023-12-29T06:35:50.029Z,1.43
2023-12-29T06:44:15.789Z,1.48
2023-12-29T06:52:40.078Z,1.62
2023-12-29T07:01:06.088Z,1.72
2023-12-29T07:09:32.433Z,1.77
2023-12-29T07:17:56.128Z,1.84
2023-12-29T07:26:20.168Z,1.91
2023-12-29T07:34:46.324Z,1.91
2023-12-29T07:43:10.073Z,1.93
2023-12-29T07:51:40.040Z,2.08
2023-12-29T08:00:07.511Z,2.31
2023-12-29T08:08:36.642Z,2.53
2023-12-29T08:17:01.520Z,2.68
2023-12-29T08:25:25.658Z,2.81
2023-12-29T08:33:49.931Z,3.01
2023-12-29T08:42:17.758Z,3.25
2023-12-29T08:50:44.255Z,3.49
2023-12-29T08:59:09.619Z,3.67
2023-12-29T09:07:34.950Z,3.91
2023-12-29T09:15:59.789Z,4.15
2023-12-29T09:24:24.172Z,4.32
2023-12-29T09:32:48.864Z,4.46
2023-12-29T09:41:16.493Z,4.62
2023-12-29T09:49:43.684Z,4.74
2023-12-29T09:58:10.188Z,4.97
2023-12-29T10:06:43.058Z,5.18
2023-12-29T10:15:17.347Z,5.34
2023-12-29T10:23:56.127Z,5.51
2023-12-29T10:32:19.736Z,5.61
2023-12-29T10:40:45.172Z,5.74
2023-12-29T10:49:12.368Z,5.90
2023-12-29T10:57:36.967Z,6.06
2023-12-29T11:06:03.461Z,6.32
2023-12-29T11:14:28.861Z,6.52
2023-12-29T11:22:53.191Z,6.69
2023-12-29T11:31:20.232Z,6.81
2023-12-29T11:40:45.750Z,6.91
2023-12-29T11:49:11.858Z,6.96
2023-12-29T11:57:38.248Z,7.00
2023-12-29T12:06:05.504Z,7.09
2023-12-29T12:15:05.473Z,7.24
2023-12-29T12:23:34.907Z,7.39
2023-12-29T12:31:59.312Z,7.53
2023-12-29T12:40:28.996Z,7.64
2023-12-29T12:48:53.714Z,7.71
2023-12-29T12:57:22.020Z,7.77
2023-12-29T13:05:46.255Z,7.78
2023-12-29T13:14:09.715Z,7.77
2023-12-29T13:22:33.439Z,7.72
2023-12-29T13:30:58.581Z,7.70
2023-12-29T13:39:38.289Z,7.66
2023-12-29T13:48:04.501Z,7.67
2023-12-29T13:56:28.876Z,7.61
2023-12-29T14:05:07.237Z,7.56
2023-12-29T14:13:30.864Z,7.49
2023-12-29T14:21:57.134Z,7.39
2023-12-29T14:30:21.776Z,7.33
2023-12-29T14:38:46.449Z,7.25
2023-12-29T14:47:11.469Z,7.23
2023-12-29T14:55:38.643Z,7.21
2023-12-29T15:04:02.587Z,7.24
2023-12-29T15:12:28.473Z,7.23
2023-12-29T15:20:53.114Z,7.20
2023-12-29T15:29:17.118Z,7.21
2023-12-29T15:37:42.153Z,7.19
2023-12-29T15:46:23.709Z,7.19
2023-12-29T15:54:47.396Z,7.23
2023-12-29T16:03:33.318Z,7.18
2023-12-29T16:11:57.778Z,7.06
2023-12-29T16:20:30.574Z,6.92
2023-12-29T16:28:54.152Z,6.73
2023-12-29T16:37:21.369Z,6.59
2023-12-29T16:45:46.702Z,6.45
2023-12-29T16:54:11.524Z,6.27
2023-12-29T17:02:35.830Z,6.16
2023-12-29T17:10:59.802Z,6.10
2023-12-29T17:19:27.443Z,6.10
2023-12-29T17:27:52.740Z,6.25
2023-12-29T17:36:19.547Z,6.33
2023-12-29T17:44:43.649Z,6.42
2023-12-29T17:53:07.588Z,6.47
2023-12-29T18:01:33.720Z,6.50
2023-12-29T18:09:58.320Z,6.53
2023-12-29T18:18:23.242Z,6.52
2023-12-29T18:26:47.517Z,6.51
2023-12-29T18:35:13.526Z,6.43
2023-12-29T18:43:38.508Z,6.40
2023-12-29T18:52:02.723Z,6.36
2023-12-29T19:00:26.625Z,6.30
2023-12-29T19:08:51.395Z,6.24
2023-12-29T19:17:16.112Z,6.19
2023-12-29T19:25:41.356Z,6.18
2023-12-29T19:34:07.874Z,6.22
2023-12-29T19:42:34.375Z,6.24
2023-12-29T19:50:58.632Z,6.24
2023-12-29T19:59:23.950Z,6.30
2023-12-29T20:07:49.022Z,6.33
2023-12-29T20:16:41.877Z,6.35
2023-12-29T20:25:06.517Z,6.39
2023-12-29T20:33:32.758Z,6.36
2023-12-29T20:41:56.593Z,6.35
2023-12-29T20:59:41.135Z,6.32
2023-12-29T21:08:26.549Z,6.33
2023-12-29T21:16:54.106Z,6.33
2023-12-29T21:25:17.859Z,6.37
2023-12-29T21:33:42.018Z,6.38
2023-12-29T21:42:07.222Z,6.39
2023-12-29T21:51:09.524Z,6.44
2023-12-29T21:59:33.982Z,6.45
2023-12-29T22:07:57.775Z,6.48
2023-12-29T22:16:23.825Z,6.47
2023-12-29T22:24:51.057Z,6.42
2023-12-29T22:33:15.644Z,6.34
2023-12-29T22:41:39.675Z,6.22
2023-12-29T22:50:05.528Z,6.19
2023-12-29T22:58:31.182Z,6.21
2023-12-29T23:06:54.844Z,6.15
2023-12-29T23:15:19.219Z,6.11
2023-12-29T23:23:44.734Z,6.11
2023-12-29T23:32:09.708Z,6.04
2023-12-29T23:40:34.885Z,6.06
2023-12-29T23:49:00.348Z,6.14
2023-12-29T23:57:25.015Z,6.16
